Time;durP1;ratioP1;P1;durP2;ratioP2;P2;SDS_P1;SDS_P2;PMS_P1;PMS_P2;Temp;Humidity;BMP_temperature;BMP_pressure;BME280_temperature;BME280_humidity;BME280_pressure;Samples;Min_cycle;Max_cycle;Signal;HPM_P1;HPM_P2
2023/01/05 00:01:56;;;;;;;12.82;3.00;;;9.40;99.90;;;;;;5070849;28;20091;-47
2023/01/05 00:04:22;;;;;;;13.18;3.20;;;9.40;99.90;;;;;;5071055;28;20104;-47
2023/01/05 00:06:48;;;;;;;16.33;3.67;;;9.50;99.90;;;;;;5070120;28;20032;-46
2023/01/05 00:09:16;;;;;;;13.82;3.30;;;9.50;99.90;;;;;;5071353;28;20043;-46
2023/01/05 00:22:54;;;;;;;14.57;3.40;;;9.90;99.90;;;;;;5071118;28;20137;-46
2023/01/05 00:25:22;;;;;;;19.25;4.22;;;9.90;99.90;;;;;;5070835;28;20198;-46
2023/01/05 00:27:50;;;;;;;15.43;4.03;;;9.90;99.90;;;;;;5069273;28;20024;-46
2023/01/05 00:30:20;;;;;;;22.45;3.67;;;9.90;99.90;;;;;;5070512;28;20162;-46
2023/01/05 00:32:46;;;;;;;20.48;4.53;;;10.00;99.90;;;;;;5066104;28;20110;-46
2023/01/05 00:35:13;;;;;;;17.38;3.70;;;10.00;99.90;;;;;;5070101;28;20063;-46
2023/01/05 00:37:40;;;;;;;22.58;3.83;;;10.00;99.90;;;;;;5069008;28;20058;-47
2023/01/05 00:40:08;;;;;;;14.07;3.92;;;10.00;99.90;;;;;;5070464;28;20028;-48
2023/01/05 00:42:34;;;;;;;18.63;4.28;;;10.10;99.90;;;;;;5065388;28;20172;-48
2023/01/05 00:44:59;;;;;;;14.50;3.75;;;10.10;99.90;;;;;;5058327;28;20151;-47
2023/01/05 00:47:25;;;;;;;20.08;4.03;;;10.10;99.90;;;;;;5067552;28;20028;-46
2023/01/05 00:49:50;;;;;;;21.45;4.28;;;10.10;99.90;;;;;;5070983;28;20024;-46
2023/01/05 00:52:16;;;;;;;15.13;3.53;;;10.00;99.90;;;;;;5070133;28;20108;-47
2023/01/05 00:54:42;;;;;;;17.02;4.00;;;10.00;99.90;;;;;;5070223;28;20086;-47
2023/01/05 00:57:11;;;;;;;29.85;5.22;;;10.00;99.90;;;;;;5068972;28;20143;-46
2023/01/05 00:59:36;;;;;;;19.95;4.22;;;10.00;99.90;;;;;;5069484;28;20048;-47
2023/01/05 01:02:03;;;;;;;17.38;4.50;;;10.00;99.90;;;;;;5069892;28;20105;-47
2023/01/05 01:04:32;;;;;;;16.65;3.90;;;10.00;99.90;;;;;;5069029;28;20170;-47
2023/01/05 01:06:59;;;;;;;18.00;4.57;;;10.00;99.90;;;;;;5070057;28;20032;-49
2023/01/05 01:09:25;;;;;;;17.70;4.35;;;10.00;99.90;;;;;;5068689;28;20025;-46
2023/01/05 01:11:51;;;;;;;13.32;4.60;;;10.00;99.90;;;;;;5069672;28;20489;-46
2023/01/05 01:14:17;;;;;;;18.60;3.53;;;10.00;99.90;;;;;;5065343;28;20028;-47
2023/01/05 01:16:43;;;;;;;19.27;4.50;;;10.00;99.90;;;;;;5061745;28;20021;-46
2023/01/05 01:19:20;;;;;;;14.27;4.60;;;10.10;99.90;;;;;;5069994;28;20367;-48
2023/01/05 01:21:46;;;;;;;23.90;4.20;;;10.20;99.90;;;;;;5068069;28;20025;-46
2023/01/05 01:24:18;;;;;;;20.95;4.80;;;10.20;99.90;;;;;;5070115;28;20047;-46
2023/01/05 01:26:44;;;;;;;18.70;4.35;;;10.20;99.90;;;;;;5064930;28;20033;-46
2023/01/05 01:29:12;;;;;;;18.27;3.92;;;10.30;99.90;;;;;;5059868;28;20501;-47
2023/01/05 01:31:38;;;;;;;17.80;4.75;;;10.30;99.90;;;;;;5068462;28;20107;-46
2023/01/05 01:34:04;;;;;;;14.23;3.20;;;10.30;99.90;;;;;;5069196;28;20455;-46
2023/01/05 01:36:30;;;;;;;21.25;4.70;;;10.30;99.90;;;;;;5069756;28;20025;-46
2023/01/05 01:38:56;;;;;;;16.33;3.35;;;10.30;99.90;;;;;;5069305;28;20544;-45
2023/01/05 01:41:21;;;;;;;25.23;5.07;;;10.30;99.90;;;;;;5069638;28;20063;-48
2023/01/05 01:43:53;;;;;;;12.32;2.80;;;10.30;99.90;;;;;;5068776;28;20170;-46
2023/01/05 01:46:20;;;;;;;15.57;4.95;;;10.30;99.90;;;;;;5069537;28;20083;-46
2023/01/05 01:48:54;;;;;;;16.10;3.92;;;10.20;99.90;;;;;;5069343;28;20028;-47
2023/01/05 01:51:27;;;;;;;16.63;4.15;;;10.20;99.90;;;;;;5068278;28;20666;-47
2023/01/05 01:53:56;;;;;;;20.25;4.50;;;10.20;99.90;;;;;;5069156;28;20099;-46
2023/01/05 01:56:26;;;;;;;19.47;4.57;;;10.20;99.90;;;;;;5065091;28;20021;-46
2023/01/05 01:58:52;;;;;;;18.25;3.90;;;10.20;99.90;;;;;;5049346;28;20066;-47
2023/01/05 02:01:18;;;;;;;21.80;4.93;;;10.30;99.90;;;;;;5049183;28;20025;-47
2023/01/05 02:03:44;;;;;;;21.70;4.85;;;10.30;99.90;;;;;;5046981;28;20021;-47
2023/01/05 02:06:10;;;;;;;19.55;3.33;;;10.30;99.90;;;;;;5049021;28;20380;-49
2023/01/05 02:08:35;;;;;;;26.35;4.55;;;10.30;99.90;;;;;;5047663;28;20024;-48
2023/01/05 02:11:23;;;;;;;22.60;4.57;;;10.30;99.90;;;;;;5048686;28;20021;-48
2023/01/05 02:14:19;;;;;;;15.23;4.28;;;10.30;99.90;;;;;;5046722;28;20125;-46
2023/01/05 02:16:51;;;;;;;16.15;3.85;;;10.30;99.90;;;;;;5048842;28;20105;-46
2023/01/05 02:19:50;;;;;;;20.17;3.88;;;10.40;99.90;;;;;;5048745;28;20021;-46
2023/01/05 02:22:19;;;;;;;20.75;5.07;;;10.30;99.90;;;;;;5048499;28;20504;-47
2023/01/05 02:25:14;;;;;;;28.90;5.35;;;10.20;99.90;;;;;;5048933;28;20036;-46
2023/01/05 02:27:48;;;;;;;19.25;5.00;;;10.30;99.90;;;;;;5056199;28;20024;-46
2023/01/05 02:30:38;;;;;;;15.95;4.35;;;10.30;99.90;;;;;;5063834;28;20025;-46
2023/01/05 02:33:24;;;;;;;25.52;5.60;;;10.30;99.90;;;;;;5068674;28;20032;-46
2023/01/05 02:36:26;;;;;;;27.77;5.47;;;10.30;99.90;;;;;;5069457;28;20033;-49
2023/01/05 02:39:07;;;;;;;19.80;4.53;;;10.20;99.90;;;;;;5068741;28;20078;-47
2023/01/05 02:41:43;;;;;;;22.25;4.35;;;10.20;99.90;;;;;;5067151;28;20052;-48
2023/01/05 02:44:09;;;;;;;18.02;4.20;;;10.20;99.90;;;;;;5068199;28;20020;-48
2023/01/05 02:46:34;;;;;;;23.63;4.80;;;10.20;99.90;;;;;;5068399;28;20025;-46
2023/01/05 02:49:03;;;;;;;17.90;4.53;;;10.10;99.90;;;;;;5068631;28;20443;-47
2023/01/05 02:51:37;;;;;;;22.20;4.32;;;10.10;99.90;;;;;;5068431;28;20028;-48
2023/01/05 02:54:19;;;;;;;19.05;4.40;;;10.20;99.90;;;;;;5067847;28;20056;-46
2023/01/05 02:56:57;;;;;;;13.90;3.70;;;10.20;99.90;;;;;;5066017;28;20328;-46
2023/01/05 02:59:32;;;;;;;17.38;4.13;;;10.20;99.90;;;;;;5059507;28;20304;-48
2023/01/05 03:02:03;;;;;;;20.33;3.92;;;10.20;99.90;;;;;;5067693;28;20027;-46
2023/01/05 03:05:06;;;;;;;15.85;3.47;;;10.10;99.90;;;;;;5068204;28;20020;-46
2023/01/05 03:07:35;;;;;;;15.60;3.92;;;10.10;99.90;;;;;;5046167;28;20036;-47
2023/01/05 03:13:39;;;;;;;20.98;3.90;;;10.00;99.90;;;;;;5067069;28;20056;-46
2023/01/05 03:15:35;;;;;;;15.25;3.15;;;10.00;99.90;;;;;;5064585;28;20318;-47
2023/01/05 03:18:06;;;;;;;15.18;2.75;;;10.10;99.90;;;;;;5060305;28;20024;-48
2023/01/05 03:20:34;;;;;;;13.50;3.60;;;10.10;99.90;;;;;;5068413;28;20021;-47
2023/01/05 03:37:47;;;;;;;11.68;2.67;;;10.20;99.90;;;;;;5066580;28;20055;-46
2023/01/05 03:40:21;;;;;;;10.20;2.65;;;10.20;99.90;;;;;;5060180;28;20063;-46
2023/01/05 03:42:47;;;;;;;12.48;2.63;;;10.20;99.90;;;;;;5071028;28;20496;-47
2023/01/05 03:45:15;;;;;;;17.13;3.67;;;10.30;99.90;;;;;;5071599;28;20090;-46
2023/01/05 03:47:40;;;;;;;9.45;2.60;;;10.20;99.90;;;;;;5070233;28;20044;-46
2023/01/05 03:50:07;;;;;;;11.13;2.53;;;10.20;99.90;;;;;;5067642;28;20024;-46
2023/01/05 03:52:32;;;;;;;15.00;2.95;;;10.20;99.90;;;;;;5044851;28;20024;-48
2023/01/05 03:54:58;;;;;;;8.73;2.00;;;10.20;99.90;;;;;;5054102;28;20047;-46
2023/01/05 03:57:24;;;;;;;11.13;3.00;;;10.30;99.90;;;;;;5050656;28;20020;-48
2023/01/05 03:59:49;;;;;;;10.48;2.60;;;10.20;99.90;;;;;;5050029;28;20611;-47
2023/01/05 04:02:15;;;;;;;14.75;3.28;;;10.30;99.90;;;;;;5050750;28;20386;-46
2023/01/05 04:04:41;;;;;;;14.38;2.80;;;10.30;99.90;;;;;;5031458;28;20041;-46
2023/01/05 04:07:07;;;;;;;16.85;2.83;;;10.30;99.90;;;;;;5031522;28;20102;-46
2023/01/05 04:09:32;;;;;;;10.05;2.70;;;10.30;99.90;;;;;;5030086;28;20025;-46
2023/01/05 04:11:59;;;;;;;12.15;2.90;;;10.20;99.90;;;;;;5030752;28;20040;-49
2023/01/05 04:14:25;;;;;;;12.43;3.35;;;10.30;99.90;;;;;;5033328;28;20162;-49
2023/01/05 04:16:51;;;;;;;14.30;3.65;;;10.20;99.90;;;;;;5052811;28;20533;-46
2023/01/05 04:19:16;;;;;;;14.10;3.45;;;10.20;99.90;;;;;;5053559;28;20445;-46
2023/01/05 04:21:42;;;;;;;13.95;3.42;;;10.20;99.90;;;;;;5062116;28;20013;-47
2023/01/05 04:24:11;;;;;;;20.38;3.58;;;10.20;99.90;;;;;;5060520;28;20024;-45
2023/01/05 04:26:38;;;;;;;14.57;3.60;;;10.20;99.90;;;;;;5056711;28;20036;-46
2023/01/05 04:29:04;;;;;;;11.13;4.53;;;10.20;99.90;;;;;;5053984;28;20024;-45
2023/01/05 04:31:29;;;;;;;16.50;3.80;;;10.20;99.90;;;;;;5064577;28;20385;-46
2023/01/05 04:33:55;;;;;;;21.05;4.65;;;10.20;99.90;;;;;;5047236;28;20024;-46
2023/01/05 04:36:20;;;;;;;18.38;4.20;;;10.20;99.90;;;;;;5062123;28;20193;-46
2023/01/05 04:38:46;;;;;;;12.40;3.90;;;10.30;99.90;;;;;;5054815;28;20029;-46
2023/01/05 04:41:11;;;;;;;14.60;3.85;;;10.30;99.90;;;;;;5041763;28;20025;-45
2023/01/05 04:43:37;;;;;;;15.70;4.25;;;10.30;99.90;;;;;;5043380;28;20029;-46
2023/01/05 04:46:03;;;;;;;22.23;4.10;;;10.30;99.90;;;;;;5045149;28;20039;-46
2023/01/05 04:48:30;;;;;;;19.15;4.57;;;10.20;99.90;;;;;;5043433;28;20478;-46
2023/01/05 04:50:56;;;;;;;15.75;3.83;;;10.20;99.90;;;;;;5047172;28;20021;-45
2023/01/05 04:53:22;;;;;;;26.00;4.22;;;10.20;99.90;;;;;;5041829;28;20104;-45
2023/01/05 04:55:48;;;;;;;16.42;3.72;;;10.20;99.90;;;;;;5037839;28;20021;-46
2023/01/05 04:58:14;;;;;;;9.77;3.05;;;10.20;99.90;;;;;;5049989;28;20021;-46
2023/01/05 05:00:40;;;;;;;15.75;3.63;;;10.20;99.90;;;;;;5058041;28;20035;-46
2023/01/05 05:03:05;;;;;;;22.05;4.10;;;10.20;99.90;;;;;;5043819;28;20490;-46
2023/01/05 05:05:31;;;;;;;13.35;3.33;;;10.30;99.90;;;;;;5043958;28;20041;-46
2023/01/05 05:07:57;;;;;;;15.30;3.30;;;10.30;99.90;;;;;;5041363;28;20029;-48
2023/01/05 05:10:22;;;;;;;19.67;3.78;;;10.30;99.90;;;;;;5046390;28;20029;-45
2023/01/05 05:12:48;;;;;;;15.30;3.30;;;10.30;99.90;;;;;;5056936;28;20040;-45
2023/01/05 05:15:14;;;;;;;16.17;4.20;;;10.30;99.90;;;;;;5056638;28;20074;-49
2023/01/05 05:17:40;;;;;;;10.40;3.10;;;10.30;99.90;;;;;;5065257;28;20016;-45
2023/01/05 05:20:06;;;;;;;13.57;3.53;;;10.20;99.90;;;;;;5050871;28;20024;-47
2023/01/05 05:22:32;;;;;;;19.88;4.10;;;10.20;99.90;;;;;;5043453;28;20100;-46
2023/01/05 05:24:57;;;;;;;15.68;3.83;;;10.20;99.90;;;;;;5060864;28;20159;-46
2023/01/05 05:27:23;;;;;;;18.50;4.53;;;10.10;99.90;;;;;;5055549;28;20044;-47
2023/01/05 05:29:48;;;;;;;16.98;4.28;;;10.10;99.90;;;;;;5065892;28;20059;-47
2023/01/05 05:32:14;;;;;;;22.88;4.28;;;10.10;99.90;;;;;;5053795;28;20021;-47
2023/01/05 05:34:40;;;;;;;18.48;5.18;;;10.00;99.90;;;;;;5061145;28;20453;-46
2023/01/05 05:37:06;;;;;;;17.27;4.38;;;10.00;99.90;;;;;;5060053;28;20111;-46
2023/01/05 05:39:31;;;;;;;16.55;4.10;;;9.90;99.90;;;;;;5054209;28;20079;-47
2023/01/05 05:41:57;;;;;;;16.05;4.20;;;9.90;99.90;;;;;;5065696;28;20477;-47
2023/01/05 05:44:22;;;;;;;16.02;4.07;;;9.90;99.90;;;;;;5055032;28;20024;-46
2023/01/05 05:46:48;;;;;;;19.98;4.78;;;9.90;99.90;;;;;;5059725;28;20033;-46
2023/01/05 05:49:13;;;;;;;15.75;3.80;;;9.90;99.90;;;;;;5060683;28;20051;-46
2023/01/05 05:51:39;;;;;;;19.35;4.13;;;9.90;99.90;;;;;;5058197;28;20020;-46
2023/01/05 05:54:05;;;;;;;14.05;3.92;;;9.90;99.90;;;;;;5064057;28;20017;-46
2023/01/05 05:56:30;;;;;;;16.50;4.15;;;9.90;99.90;;;;;;5052068;28;20048;-47
2023/01/05 05:58:56;;;;;;;15.98;3.92;;;10.00;99.90;;;;;;5050020;28;20036;-47
2023/01/05 06:01:22;;;;;;;14.98;3.40;;;9.90;99.90;;;;;;5049375;28;20039;-46
2023/01/05 06:03:48;;;;;;;21.63;4.20;;;9.90;99.90;;;;;;5047459;28;20110;-47
2023/01/05 06:06:13;;;;;;;18.75;4.28;;;9.80;99.90;;;;;;5048140;28;20056;-47
2023/01/05 06:08:39;;;;;;;18.40;4.22;;;9.90;99.90;;;;;;5049195;28;20040;-47
2023/01/05 06:11:04;;;;;;;16.65;3.40;;;9.90;99.90;;;;;;5049188;28;20041;-48
2023/01/05 06:13:30;;;;;;;13.45;3.45;;;9.90;99.90;;;;;;5047151;28;20478;-47
2023/01/05 06:15:57;;;;;;;10.50;2.55;;;9.90;99.90;;;;;;5060447;28;20048;-47
2023/01/05 06:18:22;;;;;;;13.55;3.08;;;9.90;99.90;;;;;;5068878;28;20027;-48
2023/01/05 06:20:48;;;;;;;12.02;3.58;;;9.90;99.90;;;;;;5069102;28;20020;-47
2023/01/05 06:23:14;;;;;;;18.23;3.53;;;10.00;99.90;;;;;;5068577;28;20038;-48
2023/01/05 06:25:39;;;;;;;14.73;3.40;;;10.00;99.90;;;;;;5069074;28;20029;-48
2023/01/05 06:28:05;;;;;;;14.63;4.50;;;10.00;99.90;;;;;;5068771;28;20543;-50
2023/01/05 06:30:31;;;;;;;16.92;3.75;;;10.00;99.90;;;;;;5068481;28;20455;-48
2023/01/05 06:32:56;;;;;;;19.15;3.20;;;10.10;99.90;;;;;;5065858;28;20396;-47
2023/01/05 06:35:22;;;;;;;10.80;3.22;;;10.00;99.90;;;;;;5066273;28;20017;-47
2023/01/05 06:37:48;;;;;;;12.15;3.40;;;10.00;99.90;;;;;;5068795;28;20029;-48
2023/01/05 06:40:13;;;;;;;14.00;3.00;;;10.00;99.90;;;;;;5067418;28;20020;-47
2023/01/05 06:42:39;;;;;;;26.23;4.40;;;10.00;99.90;;;;;;5068096;28;20021;-49
2023/01/05 06:45:06;;;;;;;17.35;4.30;;;10.10;99.90;;;;;;5056148;28;20021;-50
2023/01/05 06:47:32;;;;;;;17.35;4.38;;;10.00;99.90;;;;;;5066652;28;20036;-47
2023/01/05 06:49:57;;;;;;;15.63;3.05;;;10.00;99.90;;;;;;5068653;28;20051;-47
2023/01/05 06:52:23;;;;;;;12.07;3.03;;;9.90;99.90;;;;;;5067881;28;20028;-47
2023/01/05 06:54:48;;;;;;;20.55;3.92;;;10.00;99.90;;;;;;5057862;28;20032;-48
2023/01/05 06:57:14;;;;;;;16.20;4.22;;;9.90;99.90;;;;;;5049296;28;20179;-49
2023/01/05 06:59:39;;;;;;;11.55;3.22;;;9.90;99.90;;;;;;5050018;28;20032;-50
2023/01/05 07:02:11;;;;;;;13.00;3.33;;;9.80;99.90;;;;;;5055218;28;20093;-49
2023/01/05 07:04:37;;;;;;;14.13;3.70;;;9.80;99.90;;;;;;5053525;28;20025;-47
2023/01/05 07:07:02;;;;;;;10.40;3.22;;;9.70;99.90;;;;;;5050815;28;20041;-49
2023/01/05 07:09:28;;;;;;;16.08;3.53;;;9.80;99.90;;;;;;5053461;28;20110;-48
2023/01/05 07:11:53;;;;;;;18.08;3.75;;;9.80;99.90;;;;;;5052148;28;20063;-48
2023/01/05 07:14:19;;;;;;;16.60;3.72;;;9.80;99.90;;;;;;5045683;28;20078;-47
2023/01/05 07:16:44;;;;;;;17.23;3.08;;;9.80;99.90;;;;;;5047406;28;20025;-47
2023/01/05 07:19:10;;;;;;;16.17;3.25;;;9.80;99.90;;;;;;5040662;28;20029;-47
2023/01/05 07:21:36;;;;;;;13.05;3.13;;;9.80;99.90;;;;;;5042445;28;20087;-48
2023/01/05 07:24:02;;;;;;;17.27;4.45;;;9.80;99.90;;;;;;5040873;28;20026;-47
2023/01/05 07:26:28;;;;;;;17.08;4.22;;;9.80;99.90;;;;;;5040856;28;20025;-47
2023/01/05 07:28:54;;;;;;;13.23;3.42;;;9.80;99.90;;;;;;5042477;28;20033;-47
2023/01/05 07:31:19;;;;;;;13.57;3.35;;;9.90;99.90;;;;;;5045395;28;20021;-45
2023/01/05 07:33:45;;;;;;;14.45;2.80;;;9.90;99.90;;;;;;5041957;28;20029;-45
2023/01/05 07:36:10;;;;;;;15.18;3.33;;;9.90;99.90;;;;;;5040585;28;20534;-47
2023/01/05 07:38:36;;;;;;;7.72;2.28;;;9.90;99.90;;;;;;5042297;28;20550;-46
2023/01/05 07:41:02;;;;;;;11.50;3.22;;;9.90;99.90;;;;;;5023904;28;20470;-47
2023/01/05 07:43:28;;;;;;;12.10;2.85;;;9.90;99.90;;;;;;5029383;28;20021;-45
2023/01/05 07:45:58;;;;;;;12.85;2.40;;;9.90;99.90;;;;;;5042956;28;20080;-46
2023/01/05 07:48:24;;;;;;;7.10;2.88;;;9.80;99.90;;;;;;5039694;28;20058;-47
2023/01/05 07:50:49;;;;;;;8.50;2.30;;;9.80;99.90;;;;;;5024194;28;20264;-45
2023/01/05 07:53:15;;;;;;;12.90;2.78;;;9.80;99.90;;;;;;5042396;28;20025;-45
2023/01/05 07:55:40;;;;;;;15.20;2.63;;;9.70;99.90;;;;;;5041698;28;20071;-45
2023/01/05 07:58:06;;;;;;;9.98;2.40;;;9.80;99.90;;;;;;5035063;28;20029;-45
2023/01/05 08:00:32;;;;;;;8.95;2.42;;;9.70;99.90;;;;;;5032242;28;20074;-46
2023/01/05 08:02:57;;;;;;;10.48;2.50;;;9.70;99.90;;;;;;5033792;28;20021;-46
2023/01/05 08:05:24;;;;;;;12.70;2.38;;;9.70;99.90;;;;;;5032868;28;20398;-46
2023/01/05 08:07:50;;;;;;;18.05;3.10;;;9.80;99.90;;;;;;5034602;28;20187;-47
2023/01/05 08:10:27;;;;;;;7.32;2.53;;;9.80;99.90;;;;;;5040684;28;20494;-46
2023/01/05 08:15:37;;;;;;;17.58;3.03;;;9.70;99.90;;;;;;5041548;28;20028;-48
2023/01/05 08:18:03;;;;;;;13.15;3.03;;;9.70;99.90;;;;;;5045783;28;20025;-49
2023/01/05 08:20:28;;;;;;;8.23;2.83;;;9.70;99.90;;;;;;5051226;28;20481;-49
2023/01/05 08:22:54;;;;;;;9.13;3.75;;;9.70;99.90;;;;;;5050853;28;20021;-46
2023/01/05 08:25:20;;;;;;;16.45;3.83;;;9.60;99.90;;;;;;5051226;28;20526;-46
2023/01/05 08:27:46;;;;;;;8.65;3.35;;;9.70;99.90;;;;;;5050919;28;20025;-47
2023/01/05 08:30:12;;;;;;;19.67;3.53;;;9.60;99.90;;;;;;5050759;28;20021;-46
2023/01/05 08:32:39;;;;;;;13.98;3.67;;;9.60;99.90;;;;;;5050154;28;20083;-46
2023/01/05 08:35:05;;;;;;;15.57;4.03;;;9.60;99.90;;;;;;5050729;28;20024;-46
2023/01/05 08:37:30;;;;;;;16.65;3.53;;;9.70;99.90;;;;;;5042786;28;20033;-46
2023/01/05 08:39:56;;;;;;;10.98;3.22;;;9.60;99.90;;;;;;5041706;28;20078;-46
2023/01/05 08:42:21;;;;;;;9.48;3.20;;;9.70;99.90;;;;;;5043274;28;20120;-46
2023/01/05 08:44:47;;;;;;;9.10;2.75;;;9.70;99.90;;;;;;5045495;28;20029;-46
2023/01/05 08:47:12;;;;;;;12.82;3.25;;;9.70;99.90;;;;;;5030413;28;20022;-46
2023/01/05 08:49:38;;;;;;;10.35;2.30;;;9.80;99.90;;;;;;5030685;28;20460;-46
2023/01/05 08:52:04;;;;;;;11.25;2.42;;;9.80;99.90;;;;;;5030128;28;20056;-46
2023/01/05 08:54:29;;;;;;;10.50;2.85;;;9.80;99.90;;;;;;5035406;28;20036;-46
2023/01/05 08:56:55;;;;;;;9.20;2.42;;;9.80;99.90;;;;;;5041837;28;20112;-46
2023/01/05 08:59:20;;;;;;;8.20;2.83;;;9.80;99.90;;;;;;5039529;28;20507;-46
2023/01/05 09:01:46;;;;;;;6.80;2.47;;;9.90;99.90;;;;;;5047648;28;20473;-46
2023/01/05 09:04:11;;;;;;;9.02;2.03;;;9.80;99.90;;;;;;5049231;28;20048;-46
2023/01/05 09:06:37;;;;;;;7.45;2.15;;;9.90;99.90;;;;;;5049689;28;20029;-46
2023/01/05 09:09:03;;;;;;;7.68;1.83;;;9.80;99.90;;;;;;5040283;28;20083;-46
2023/01/05 09:11:28;;;;;;;6.30;1.83;;;9.80;99.90;;;;;;5062586;28;20044;-46
2023/01/05 09:13:56;;;;;;;7.43;2.10;;;9.80;99.90;;;;;;5058184;28;20280;-46
2023/01/05 09:16:25;;;;;;;8.18;2.20;;;9.80;99.90;;;;;;5061390;28;20063;-46
2023/01/05 09:18:50;;;;;;;11.25;2.20;;;9.90;99.90;;;;;;5068325;28;20473;-46
2023/01/05 09:21:16;;;;;;;4.95;1.50;;;9.80;99.90;;;;;;5063512;28;20017;-46
2023/01/05 09:23:42;;;;;;;4.32;1.70;;;9.80;99.90;;;;;;5041781;28;20022;-48
2023/01/05 09:26:11;;;;;;;5.72;1.70;;;9.70;99.90;;;;;;5048583;28;20514;-47
2023/01/05 09:28:37;;;;;;;5.20;2.00;;;9.60;99.90;;;;;;5047792;28;20074;-46
2023/01/05 09:31:07;;;;;;;7.00;2.03;;;9.50;99.90;;;;;;5048283;28;20021;-46
2023/01/05 09:33:33;;;;;;;8.07;1.95;;;9.50;99.90;;;;;;5035385;28;20025;-46
2023/01/05 09:35:59;;;;;;;4.55;1.42;;;9.50;99.90;;;;;;5030837;28;20406;-48
2023/01/05 09:38:24;;;;;;;4.15;1.20;;;9.40;99.90;;;;;;5028138;28;20393;-47
2023/01/05 09:40:54;;;;;;;4.88;1.58;;;9.40;99.90;;;;;;5029218;28;20027;-47
2023/01/05 09:43:26;;;;;;;2.53;1.42;;;9.30;99.90;;;;;;5030014;28;20029;-46
2023/01/05 09:45:52;;;;;;;3.05;1.40;;;9.30;99.90;;;;;;5047123;28;20043;-46
2023/01/05 09:48:19;;;;;;;2.00;1.10;;;9.40;99.90;;;;;;5048078;28;20466;-47
2023/01/05 09:50:47;;;;;;;9.63;1.63;;;9.40;99.90;;;;;;5047934;28;20029;-47
2023/01/05 09:53:14;;;;;;;4.78;1.83;;;9.50;99.90;;;;;;5047518;28;20025;-47
2023/01/05 09:55:42;;;;;;;4.50;1.52;;;9.50;99.90;;;;;;5048093;28;20017;-46
2023/01/05 09:58:16;;;;;;;6.15;1.95;;;9.50;99.90;;;;;;5036275;28;20025;-46
2023/01/05 10:00:45;;;;;;;6.03;1.60;;;9.60;99.90;;;;;;5036486;28;20039;-46
2023/01/05 10:03:18;;;;;;;3.65;1.55;;;9.60;99.90;;;;;;5036501;28;20032;-49
2023/01/05 10:05:46;;;;;;;6.00;1.25;;;9.60;99.90;;;;;;5039139;28;20059;-48
2023/01/05 10:08:31;;;;;;;4.65;1.50;;;9.50;99.90;;;;;;5037854;28;20017;-46
2023/01/05 10:14:18;;;;;;;6.25;1.52;;;9.70;99.90;;;;;;5046046;28;20023;-47
2023/01/05 10:16:45;;;;;;;6.80;2.88;;;9.70;99.90;;;;;;5032938;28;20108;-47
2023/01/05 10:19:17;;;;;;;6.90;1.70;;;9.60;99.90;;;;;;5031148;28;20026;-49
2023/01/05 10:22:11;;;;;;;12.43;3.03;;;9.50;99.90;;;;;;5037670;28;20052;-46
2023/01/05 10:24:37;;;;;;;6.10;1.80;;;9.30;99.90;;;;;;5015627;28;20094;-49
2023/01/05 10:27:18;;;;;;;4.85;1.77;;;9.20;99.90;;;;;;5039632;28;20032;-46
2023/01/05 10:29:57;;;;;;;5.47;1.73;;;9.20;99.90;;;;;;5038894;28;20071;-46
2023/01/05 10:32:27;;;;;;;4.07;1.55;;;9.10;99.90;;;;;;5040975;28;20036;-46
2023/01/05 10:35:03;;;;;;;5.13;1.60;;;9.10;99.90;;;;;;5048297;28;20025;-47
2023/01/05 10:37:56;;;;;;;5.85;1.58;;;9.00;99.90;;;;;;5048488;28;20020;-47
2023/01/05 10:40:48;;;;;;;8.07;1.85;;;9.00;99.90;;;;;;5048683;28;20498;-47
2023/01/05 10:43:38;;;;;;;6.38;2.05;;;9.20;99.90;;;;;;5040203;28;20033;-48
2023/01/05 10:46:06;;;;;;;6.40;2.28;;;9.30;99.90;;;;;;5050610;28;20401;-47
2023/01/05 10:48:34;;;;;;;8.38;2.70;;;9.40;99.90;;;;;;5048411;28;20087;-49
2023/01/05 10:51:01;;;;;;;6.63;2.35;;;9.40;99.90;;;;;;5047265;28;20021;-46
2023/01/05 10:53:28;;;;;;;8.52;2.60;;;9.40;99.90;;;;;;5048045;28;20088;-47
2023/01/05 10:55:53;;;;;;;6.75;2.10;;;9.70;99.90;;;;;;5048381;28;20417;-47
2023/01/05 10:58:22;;;;;;;6.55;1.80;;;11.30;99.90;;;;;;5048421;28;20104;-48
2023/01/05 11:00:48;;;;;;;6.57;1.63;;;12.90;99.90;;;;;;5048030;28;20037;-47
2023/01/05 11:03:16;;;;;;;4.22;1.63;;;14.30;99.90;;;;;;5046695;28;20061;-50
2023/01/05 11:05:45;;;;;;;6.90;1.92;;;15.60;99.90;;;;;;5048349;28;20025;-50
2023/01/05 11:08:18;;;;;;;3.15;2.00;;;17.00;99.90;;;;;;5047581;28;20024;-47
2023/01/05 11:10:54;;;;;;;5.82;1.75;;;17.30;98.00;;;;;;5048201;28;20140;-48
2023/01/05 11:13:38;;;;;;;6.00;1.63;;;17.00;99.10;;;;;;5048047;28;20100;-47
2023/01/05 11:16:19;;;;;;;7.47;1.63;;;17.50;97.90;;;;;;5050503;28;20028;-47
2023/01/05 11:18:55;;;;;;;;;;;17.70;96.10;;;;;;5049274;28;20010;-48
2023/01/05 11:21:29;;;;;;;4.40;1.40;;;18.10;95.20;;;;;;5048425;28;19909;-47
2023/01/05 11:23:57;;;;;;;4.00;1.75;;;18.50;94.60;;;;;;5047989;28;20383;-48
2023/01/05 11:26:27;;;;;;;3.63;1.42;;;17.70;94.50;;;;;;5048863;28;20085;-45
2023/01/05 11:29:07;;;;;;;4.72;1.42;;;16.80;94.90;;;;;;5046856;28;20025;-45
2023/01/05 11:31:46;;;;;;;4.70;1.77;;;15.30;98.20;;;;;;5047595;28;20021;-48
2023/01/05 11:34:16;;;;;;;6.35;1.70;;;14.10;99.90;;;;;;5048113;28;20112;-44
2023/01/05 11:36:49;;;;;;;8.63;2.30;;;13.10;99.90;;;;;;5048105;28;20052;-45
2023/01/05 11:39:33;;;;;;;8.77;2.38;;;12.50;99.90;;;;;;5048038;28;20040;-44
2023/01/05 11:42:13;;;;;;;5.10;1.67;;;11.80;99.90;;;;;;5046520;28;20041;-46
2023/01/05 11:44:45;;;;;;;3.33;1.45;;;11.50;99.90;;;;;;5057630;28;20077;-46
2023/01/05 11:47:38;;;;;;;5.57;1.45;;;11.20;99.90;;;;;;5065540;28;20485;-48
2023/01/05 11:50:26;;;;;;;6.70;1.92;;;10.90;99.90;;;;;;5070647;28;20040;-46
2023/01/05 11:52:54;;;;;;;6.05;1.40;;;10.60;99.90;;;;;;5071263;28;20021;-45
2023/01/05 11:55:23;;;;;;;5.55;1.40;;;10.50;99.90;;;;;;5071727;28;20520;-46
2023/01/05 11:57:51;;;;;;;9.93;1.60;;;10.40;99.90;;;;;;5071665;28;20021;-46
2023/01/05 12:01:02;;;;;;;8.68;1.58;;;10.30;99.90;;;;;;5071221;28;20025;-46
2023/01/05 12:04:03;;;;;;;4.18;1.42;;;10.20;99.90;;;;;;5068527;28;20062;-46
2023/01/05 12:06:50;;;;;;;3.97;1.40;;;10.00;99.90;;;;;;5069973;28;20412;-45
2023/01/05 12:09:22;;;;;;;9.07;1.52;;;10.00;99.90;;;;;;5070092;28;20507;-45
2023/01/05 12:11:54;;;;;;;5.80;1.65;;;9.90;99.90;;;;;;5069299;28;20336;-46
2023/01/05 12:14:59;;;;;;;6.72;1.65;;;9.80;99.90;;;;;;5067992;28;20016;-46
2023/01/05 12:17:37;;;;;;;11.73;1.50;;;9.80;99.90;;;;;;5036188;28;20028;-45
2023/01/05 12:20:36;;;;;;;7.55;1.10;;;9.70;99.90;;;;;;5069979;28;20537;-46
2023/01/05 12:23:26;;;;;;;10.05;2.08;;;9.70;99.90;;;;;;5071054;28;20028;-46
2023/01/05 12:25:56;;;;;;;2.88;1.15;;;9.70;99.90;;;;;;5060518;28;20107;-46
2023/01/05 12:28:40;;;;;;;5.60;1.23;;;9.70;99.90;;;;;;5071162;28;20017;-46
2023/01/05 12:31:27;;;;;;;4.35;1.73;;;9.60;99.90;;;;;;5069563;28;20077;-46
2023/01/05 12:34:16;;;;;;;5.05;1.30;;;9.60;99.90;;;;;;5068938;28;20628;-46
2023/01/05 12:37:18;;;;;;;2.85;1.40;;;9.50;99.90;;;;;;5070992;28;20052;-49
2023/01/05 12:40:11;;;;;;;7.05;1.80;;;9.30;99.90;;;;;;5070525;28;20420;-47
2023/01/05 12:43:06;;;;;;;4.90;1.55;;;9.30;99.90;;;;;;5070548;28;20056;-45
2023/01/05 12:45:54;;;;;;;6.28;1.60;;;9.20;99.90;;;;;;5051572;28;20164;-45
2023/01/05 12:48:32;;;;;;;3.50;1.20;;;9.20;99.90;;;;;;5070596;28;20106;-45
2023/01/05 12:51:22;;;;;;;2.63;1.23;;;9.20;99.90;;;;;;5070519;28;20082;-45
2023/01/05 12:53:57;;;;;;;7.05;1.88;;;9.10;99.90;;;;;;5069864;28;20382;-45
2023/01/05 12:56:35;;;;;;;6.28;1.65;;;9.10;99.90;;;;;;5069802;28;20480;-47
2023/01/05 12:59:12;;;;;;;4.18;1.17;;;9.10;99.90;;;;;;5059856;28;20534;-46
2023/01/05 13:01:44;;;;;;;5.82;1.73;;;9.20;99.90;;;;;;5047800;28;20074;-47
2023/01/05 13:04:28;;;;;;;4.93;1.63;;;9.20;99.90;;;;;;5049087;28;20029;-47
2023/01/05 13:06:58;;;;;;;8.27;1.40;;;9.20;99.90;;;;;;5029156;28;20414;-46
2023/01/05 13:09:28;;;;;;;4.63;1.35;;;9.20;99.90;;;;;;5029168;28;20037;-46
2023/01/05 13:12:07;;;;;;;4.22;1.95;;;9.20;99.90;;;;;;5028705;28;20136;-46
2023/01/05 13:14:35;;;;;;;5.53;1.90;;;9.20;99.90;;;;;;5047904;28;20418;-46
2023/01/05 13:17:11;;;;;;;7.40;1.73;;;9.10;99.90;;;;;;5057388;28;20033;-48
2023/01/05 13:19:46;;;;;;;6.13;1.05;;;9.10;99.90;;;;;;5047112;28;20045;-45
2023/01/05 13:22:31;;;;;;;8.27;1.40;;;9.10;99.90;;;;;;5046875;28;20021;-45
2023/01/05 13:25:26;;;;;;;5.78;1.50;;;9.10;99.90;;;;;;5049175;28;20067;-45
2023/01/05 13:27:51;;;;;;;5.95;1.35;;;9.10;99.90;;;;;;5048296;28;20049;-47
2023/01/05 13:30:33;;;;;;;8.98;1.90;;;9.10;99.90;;;;;;5048869;28;20029;-45
2023/01/05 13:33:17;;;;;;;3.42;1.77;;;9.00;99.90;;;;;;5048344;28;20024;-49
2023/01/05 13:36:07;;;;;;;3.47;1.50;;;9.00;99.90;;;;;;5047131;28;20021;-46
2023/01/05 13:39:11;;;;;;;5.43;1.52;;;8.90;99.90;;;;;;5048795;28;20025;-45